createdAt,value
2018-05-04T00:00:47.507Z,6.20
2018-05-04T00:03:15.882Z,6.30
2018-05-04T00:05:44.232Z,6.30
2018-05-04T00:08:12.792Z,6.40
2018-05-04T00:10:41.219Z,6.50
2018-05-04T00:13:09.595Z,6.50
2018-05-04T00:15:38.086Z,6.50
2018-05-04T00:18:07.275Z,6.50
2018-05-04T00:20:35.634Z,6.50
2018-05-04T00:23:04.790Z,6.50
2018-05-04T00:25:34.098Z,6.40
2018-05-04T00:28:02.463Z,6.40
2018-05-04T00:30:31.775Z,6.30
2018-05-04T00:33:00.158Z,6.30
2018-05-04T00:35:30.792Z,6.20
2018-05-04T00:37:59.205Z,6.20
2018-05-04T00:40:28.987Z,6.00
2018-05-04T00:42:57.368Z,5.90
2018-05-04T00:45:25.715Z,5.90
2018-05-04T00:47:54.130Z,5.90
2018-05-04T00:50:23.443Z,5.80
2018-05-04T00:52:51.784Z,5.80
2018-05-04T00:55:20.955Z,5.80
2018-05-04T00:57:50.115Z,5.70
2018-05-04T01:00:19.223Z,5.70
2018-05-04T01:02:48.375Z,5.70
2018-05-04T01:05:16.801Z,5.70
2018-05-04T01:07:45.222Z,5.60
2018-05-04T01:10:13.781Z,5.60
2018-05-04T01:12:42.147Z,5.60
2018-05-04T01:15:10.703Z,5.50
2018-05-04T01:17:40.855Z,5.40
2018-05-04T01:20:10.021Z,5.40
2018-05-04T01:22:38.431Z,5.30
2018-05-04T01:25:06.815Z,5.30
2018-05-04T01:27:35.155Z,5.30
2018-05-04T01:30:03.690Z,5.20
2018-05-04T01:32:32.187Z,5.20
2018-05-04T01:35:00.618Z,5.20
2018-05-04T01:37:28.975Z,5.30
2018-05-04T01:39:57.350Z,5.40
2018-05-04T01:42:27.267Z,5.40
2018-05-04T01:45:01.291Z,5.40
2018-05-04T01:47:30.567Z,5.50
2018-05-04T01:49:59.192Z,5.40
2018-05-04T01:52:27.738Z,5.30
2018-05-04T01:54:56.135Z,5.10
2018-05-04T01:57:24.528Z,5.00
2018-05-04T01:59:52.886Z,4.90
2018-05-04T02:02:21.311Z,4.80
2018-05-04T02:04:50.218Z,4.70
2018-05-04T02:07:18.785Z,4.60
2018-05-04T02:09:47.271Z,4.60
2018-05-04T02:12:15.725Z,4.60
2018-05-04T02:14:44.082Z,4.60
2018-05-04T02:17:12.551Z,4.60
2018-05-04T02:19:40.930Z,4.60
2018-05-04T02:22:09.338Z,4.60
2018-05-04T02:24:37.785Z,4.60
2018-05-04T02:27:06.139Z,4.60
2018-05-04T02:29:34.489Z,4.60
2018-05-04T02:32:02.954Z,4.70
2018-05-04T02:34:31.371Z,4.60
2018-05-04T02:37:00.515Z,4.70
2018-05-04T02:39:28.903Z,4.60
2018-05-04T02:41:58.227Z,4.60
2018-05-04T02:44:27.256Z,4.60
2018-05-04T02:46:55.616Z,4.70
2018-05-04T02:49:24.025Z,4.70
2018-05-04T02:51:53.117Z,4.70
2018-05-04T02:54:21.756Z,4.70
2018-05-04T02:56:50.123Z,4.80
2018-05-04T02:59:19.344Z,4.90
2018-05-04T03:01:47.711Z,4.80
2018-05-04T03:04:16.108Z,4.90
2018-05-04T03:06:44.663Z,4.90
2018-05-04T03:09:13.038Z,4.90
2018-05-04T03:11:41.426Z,4.90
2018-05-04T03:14:09.841Z,5.00
2018-05-04T03:16:38.207Z,5.10
2018-05-04T03:19:07.340Z,5.20
2018-05-04T03:21:36.659Z,5.10
2018-05-04T03:24:05.371Z,5.10
2018-05-04T03:26:33.776Z,5.10
2018-05-04T03:29:02.325Z,5.00
2018-05-04T03:31:30.693Z,5.10
2018-05-04T03:33:59.088Z,5.10
2018-05-04T03:36:27.590Z,5.20
2018-05-04T03:38:56.003Z,5.20
2018-05-04T03:41:24.355Z,5.30
2018-05-04T03:43:52.715Z,5.30
2018-05-04T03:46:21.216Z,5.40
2018-05-04T03:48:49.563Z,5.40
2018-05-04T03:51:18.171Z,5.50
2018-05-04T03:53:46.555Z,5.60
2018-05-04T03:56:14.947Z,5.50
2018-05-04T03:58:55.161Z,5.60
2018-05-04T04:01:35.410Z,5.70
2018-05-04T04:04:11.515Z,5.70
2018-05-04T04:06:40.830Z,5.70
2018-05-04T04:09:10.033Z,5.80
2018-05-04T04:11:38.416Z,5.80
2018-05-04T04:14:06.904Z,5.80
2018-05-04T04:16:35.502Z,5.80
2018-05-04T04:19:04.769Z,5.80
2018-05-04T04:21:33.282Z,5.70
2018-05-04T04:24:04.147Z,5.80
2018-05-04T04:26:32.663Z,5.70
2018-05-04T04:29:01.026Z,5.80
2018-05-04T04:31:30.196Z,6.00
2018-05-04T04:33:58.586Z,6.00
2018-05-04T04:36:27.043Z,6.10
2018-05-04T04:38:55.573Z,6.30
2018-05-04T04:41:23.959Z,6.40
2018-05-04T04:43:53.113Z,6.60
2018-05-04T04:46:21.496Z,6.50
2018-05-04T04:48:50.635Z,6.90
2018-05-04T04:51:18.982Z,6.80
2018-05-04T04:53:47.421Z,7.00
2018-05-04T04:56:17.692Z,7.30
2018-05-04T04:58:46.063Z,7.30
2018-05-04T05:01:14.458Z,7.50
2018-05-04T05:03:43.259Z,7.60
2018-05-04T05:06:11.670Z,7.70
2018-05-04T05:08:40.064Z,7.80
2018-05-04T05:11:09.254Z,7.90
2018-05-04T05:13:37.618Z,7.90
2018-05-04T05:16:05.998Z,7.90
2018-05-04T05:18:34.548Z,8.00
2018-05-04T05:21:03.676Z,8.20
2018-05-04T05:23:32.787Z,8.40
2018-05-04T05:26:03.199Z,8.50
2018-05-04T05:28:31.618Z,8.50
2018-05-04T05:31:00.059Z,8.60
2018-05-04T05:33:28.449Z,8.70
2018-05-04T05:35:56.954Z,8.80
2018-05-04T05:38:25.479Z,9.00
2018-05-04T05:40:54.023Z,9.20
2018-05-04T05:43:22.390Z,9.50
2018-05-04T05:45:51.570Z,9.80
2018-05-04T05:48:20.726Z,9.70
2018-05-04T05:50:49.228Z,9.80
2018-05-04T05:53:17.643Z,9.80
2018-05-04T05:55:45.997Z,9.80
2018-05-04T05:58:15.424Z,10.10
2018-05-04T06:00:43.862Z,10.70
2018-05-04T06:03:12.226Z,11.20
2018-05-04T06:05:42.129Z,12.40
2018-05-04T06:08:11.299Z,13.00
2018-05-04T06:10:39.671Z,13.00
2018-05-04T06:13:08.063Z,13.60
2018-05-04T06:15:36.438Z,14.20
2018-05-04T06:18:04.810Z,14.90
2018-05-04T06:20:33.253Z,15.70
2018-05-04T06:23:01.663Z,16.50
2018-05-04T06:25:30.054Z,17.10
2018-05-04T06:27:58.456Z,17.70
2018-05-04T06:30:26.828Z,18.30
2018-05-04T06:32:55.232Z,18.40
2018-05-04T06:35:23.606Z,18.20
2018-05-04T06:40:26.652Z,18.80
2018-05-04T06:42:55.062Z,19.30
2018-05-04T06:45:23.487Z,19.60
2018-05-04T06:47:51.848Z,19.60
2018-05-04T06:50:20.331Z,19.90
2018-05-04T06:52:48.747Z,20.00
2018-05-04T06:55:17.144Z,20.50
2018-05-04T06:57:45.568Z,20.90
2018-05-04T07:00:13.967Z,21.20
2018-05-04T07:02:43.110Z,21.30
2018-05-04T07:05:11.520Z,21.30
2018-05-04T07:07:41.316Z,21.40
2018-05-04T07:10:10.627Z,21.50
2018-05-04T07:12:40.336Z,21.50
2018-05-04T07:15:08.720Z,21.70
2018-05-04T07:17:37.159Z,21.80
2018-05-04T07:20:05.593Z,22.00
2018-05-04T07:22:33.967Z,22.30
2018-05-04T07:25:03.160Z,22.60
2018-05-04T07:27:32.300Z,22.80
2018-05-04T07:30:02.359Z,22.80
2018-05-04T07:32:30.756Z,23.10
2018-05-04T07:34:59.947Z,23.70
2018-05-04T07:37:28.337Z,23.60
2018-05-04T07:39:56.756Z,23.30
2018-05-04T07:42:25.933Z,23.10
2018-05-04T07:44:54.369Z,23.10
2018-05-04T07:47:23.558Z,22.70
2018-05-04T07:49:52.007Z,22.70
2018-05-04T07:52:20.378Z,23.30
2018-05-04T07:54:48.783Z,23.80
2018-05-04T07:57:19.518Z,24.20
2018-05-04T07:59:48.808Z,24.50
2018-05-04T08:02:17.227Z,24.40
2018-05-04T08:04:46.427Z,24.10
2018-05-04T08:07:14.895Z,24.00
2018-05-04T08:09:43.328Z,23.80
2018-05-04T08:12:11.692Z,23.70
2018-05-04T08:14:40.863Z,24.00
2018-05-04T08:17:09.247Z,23.90
2018-05-04T08:19:38.651Z,24.40
2018-05-04T08:22:07.036Z,24.80
2018-05-04T08:24:35.423Z,25.50
2018-05-04T08:27:03.828Z,26.30
2018-05-04T08:29:32.296Z,26.80
2018-05-04T08:32:01.522Z,26.70
2018-05-04T08:34:29.906Z,25.70
2018-05-04T08:36:58.290Z,25.10
2018-05-04T08:39:26.787Z,24.10
2018-05-04T08:41:55.160Z,23.70
2018-05-04T08:44:24.125Z,22.80
2018-05-04T08:46:52.546Z,22.30
2018-05-04T08:49:21.691Z,23.20
2018-05-04T08:51:50.079Z,23.20
2018-05-04T08:54:18.497Z,22.90
2018-05-04T08:56:47.004Z,22.40
2018-05-04T08:59:16.161Z,23.20
2018-05-04T09:01:44.589Z,23.20
2018-05-04T09:04:13.741Z,22.60
2018-05-04T09:06:42.112Z,22.60
2018-05-04T09:09:11.356Z,22.70
2018-05-04T09:11:40.412Z,22.70
2018-05-04T09:14:08.800Z,22.80
2018-05-04T09:16:37.159Z,22.80
2018-05-04T09:19:06.329Z,22.70
2018-05-04T09:21:34.755Z,22.70
2018-05-04T09:24:03.127Z,22.90
2018-05-04T09:26:31.822Z,23.30
2018-05-04T09:29:00.366Z,23.60
2018-05-04T09:31:28.751Z,23.90
2018-05-04T09:33:57.151Z,23.60
2018-05-04T09:36:26.428Z,22.40
2018-05-04T09:38:54.987Z,22.30
2018-05-04T09:41:23.414Z,22.30
2018-05-04T09:43:51.894Z,22.40
2018-05-04T09:46:20.376Z,22.70
2018-05-04T09:48:48.800Z,23.30
2018-05-04T09:51:19.183Z,24.50
2018-05-04T09:53:47.594Z,24.50
2018-05-04T09:56:16.771Z,24.60
2018-05-04T09:58:45.262Z,24.60
2018-05-04T10:01:13.683Z,24.40
2018-05-04T10:03:42.827Z,24.90
2018-05-04T10:06:11.230Z,24.90
2018-05-04T10:08:39.737Z,24.70
2018-05-04T10:11:08.296Z,24.70
2018-05-04T10:13:36.661Z,24.50
2018-05-04T10:16:05.128Z,24.40
2018-05-04T10:18:33.499Z,24.50
2018-05-04T10:21:02.645Z,24.40
2018-05-04T10:23:31.029Z,24.40
2018-05-04T10:25:59.457Z,24.40
2018-05-04T10:28:28.012Z,24.30
2018-05-04T10:30:57.323Z,23.80
2018-05-04T10:33:26.616Z,23.30
2018-05-04T10:35:55.084Z,22.40
2018-05-04T10:38:24.424Z,21.50
2018-05-04T10:40:52.756Z,21.40
2018-05-04T10:43:21.145Z,20.90
2018-05-04T10:45:49.668Z,20.50
2018-05-04T10:48:18.092Z,20.40
2018-05-04T10:50:47.243Z,19.70
2018-05-04T10:53:15.655Z,19.70
2018-05-04T10:55:44.226Z,19.40
2018-05-04T10:58:12.623Z,19.30
2018-05-04T11:00:41.056Z,19.50
2018-05-04T11:03:10.185Z,19.20
2018-05-04T11:05:38.572Z,19.20
2018-05-04T11:08:06.997Z,19.20
2018-05-04T11:10:37.168Z,18.90
2018-05-04T11:13:05.596Z,18.80
2018-05-04T11:15:34.808Z,19.10
2018-05-04T11:18:03.195Z,19.10
2018-05-04T11:20:31.607Z,19.10
2018-05-04T11:23:00.763Z,19.10
2018-05-04T11:25:29.257Z,19.10
2018-05-04T11:27:57.595Z,19.30
2018-05-04T11:30:26.001Z,19.50
2018-05-04T11:32:54.483Z,19.70
2018-05-04T11:35:23.684Z,19.80
2018-05-04T11:37:53.087Z,19.80
2018-05-04T11:40:22.110Z,19.80
2018-05-04T11:42:52.213Z,19.70
2018-05-04T11:45:21.351Z,19.70
2018-05-04T11:47:49.791Z,19.70
2018-05-04T11:50:18.190Z,19.70
2018-05-04T11:52:46.623Z,19.70
2018-05-04T11:55:15.809Z,19.00
2018-05-04T11:57:45.667Z,19.10
2018-05-04T12:00:14.799Z,19.00
2018-05-04T12:02:44.679Z,19.00
2018-05-04T12:05:13.042Z,19.10
2018-05-04T12:07:41.587Z,19.30
2018-05-04T12:10:10.003Z,19.40
2018-05-04T12:12:38.573Z,19.50
2018-05-04T12:15:07.908Z,19.30
2018-05-04T12:17:36.459Z,19.20
2018-05-04T12:20:05.016Z,18.90
2018-05-04T12:22:33.658Z,18.60
2018-05-04T12:25:02.215Z,18.50
2018-05-04T12:27:30.776Z,18.70
2018-05-04T12:29:59.195Z,18.70
2018-05-04T12:32:27.583Z,18.70
2018-05-04T12:34:56.007Z,18.70
2018-05-04T12:37:25.179Z,18.20
2018-05-04T12:39:53.557Z,18.20
2018-05-04T12:42:23.119Z,18.20
2018-05-04T12:44:51.519Z,18.20
2018-05-04T12:47:23.279Z,18.30
2018-05-04T12:49:51.680Z,18.40
2018-05-04T12:52:20.087Z,18.40
2018-05-04T12:54:48.783Z,18.30
2018-05-04T12:57:17.177Z,18.20
2018-05-04T12:59:45.532Z,18.30
2018-05-04T13:02:13.887Z,18.20
2018-05-04T13:04:42.316Z,18.10
2018-05-04T13:07:10.891Z,18.30
2018-05-04T13:09:40.747Z,18.40
2018-05-04T13:12:09.974Z,18.60
2018-05-04T13:14:38.366Z,18.50
2018-05-04T13:17:06.815Z,18.50
2018-05-04T13:19:35.947Z,18.20
2018-05-04T13:22:04.332Z,18.10
2018-05-04T13:24:32.734Z,17.80
2018-05-04T13:27:01.094Z,17.80
2018-05-04T13:29:29.441Z,17.80
2018-05-04T13:31:58.819Z,17.90
2018-05-04T13:34:27.163Z,18.10
2018-05-04T13:36:55.535Z,18.10
2018-05-04T13:39:23.979Z,18.20
2018-05-04T13:41:52.364Z,18.30
2018-05-04T13:44:20.777Z,18.30
2018-05-04T13:46:49.947Z,18.10
2018-05-04T13:49:18.291Z,18.00
2018-05-04T13:51:46.647Z,18.10
2018-05-04T13:54:15.263Z,18.10
2018-05-04T13:56:43.662Z,18.00
2018-05-04T13:59:12.842Z,18.10
2018-05-04T14:01:41.314Z,18.10
2018-05-04T14:04:09.690Z,18.20
2018-05-04T14:06:38.132Z,18.20
2018-05-04T14:09:06.529Z,18.00
2018-05-04T14:11:34.901Z,18.00
2018-05-04T14:14:04.096Z,18.30
2018-05-04T14:16:33.009Z,18.30
2018-05-04T14:19:01.471Z,18.40
2018-05-04T14:21:29.875Z,18.40
2018-05-04T14:23:59.040Z,18.60
2018-05-04T14:26:27.461Z,18.50
2018-05-04T14:28:55.982Z,18.60
2018-05-04T14:31:25.181Z,18.80
2018-05-04T14:33:53.581Z,18.80
2018-05-04T14:36:22.895Z,18.90
2018-05-04T14:38:53.770Z,18.90
2018-05-04T14:41:22.152Z,18.90
2018-05-04T14:43:50.531Z,18.90
2018-05-04T14:46:19.057Z,18.80
2018-05-04T14:48:47.519Z,18.70
2018-05-04T14:51:15.971Z,18.70
2018-05-04T14:53:44.368Z,18.80
2018-05-04T14:56:12.787Z,19.00
2018-05-04T14:58:41.884Z,19.00
2018-05-04T15:01:10.243Z,18.70
2018-05-04T15:03:38.635Z,18.60
2018-05-04T15:06:07.020Z,18.60
2018-05-04T15:08:35.388Z,18.70
2018-05-04T15:11:03.779Z,18.70
2018-05-04T15:13:32.201Z,18.60
2018-05-04T15:16:00.684Z,18.50
2018-05-04T15:18:29.025Z,18.30
2018-05-04T15:20:59.106Z,18.00
2018-05-04T15:23:27.549Z,18.10
2018-05-04T15:25:55.934Z,18.10
2018-05-04T15:28:24.326Z,18.20
2018-05-04T15:30:52.886Z,18.30
2018-05-04T15:33:21.287Z,18.30
2018-05-04T15:35:49.686Z,18.30
2018-05-04T15:38:18.864Z,18.50
2018-05-04T15:40:47.275Z,18.50
2018-05-04T15:43:16.251Z,18.60
2018-05-04T15:45:44.640Z,18.70
2018-05-04T15:48:18.694Z,18.60
2018-05-04T15:50:52.656Z,18.50
2018-05-04T15:53:21.083Z,18.50
2018-05-04T15:55:50.404Z,18.60
2018-05-04T15:58:18.810Z,18.60
2018-05-04T16:00:47.242Z,18.70
2018-05-04T16:03:15.627Z,18.80
2018-05-04T16:05:44.008Z,18.80
2018-05-04T16:08:12.482Z,18.90
2018-05-04T16:10:41.235Z,18.90
2018-05-04T16:13:09.679Z,18.80
2018-05-04T16:15:38.136Z,18.70
2018-05-04T16:18:07.307Z,18.20
2018-05-04T16:20:35.846Z,18.20
2018-05-04T16:23:04.270Z,18.10
2018-05-04T16:25:34.620Z,18.10
2018-05-04T16:28:03.016Z,18.10
2018-05-04T16:30:32.221Z,18.20
2018-05-04T16:33:01.424Z,18.30
2018-05-04T16:35:29.910Z,18.30
2018-05-04T16:37:58.290Z,18.40
2018-05-04T16:40:26.738Z,18.40
2018-05-04T16:42:55.149Z,18.50
2018-05-04T16:45:23.575Z,18.50
2018-05-04T16:47:58.572Z,18.40
2018-05-04T16:50:27.042Z,18.40
2018-05-04T16:52:55.494Z,18.40
2018-05-04T16:55:23.968Z,18.30
2018-05-04T16:57:52.339Z,18.30
2018-05-04T17:00:20.716Z,18.30
2018-05-04T17:02:49.115Z,18.20
2018-05-04T17:05:17.499Z,18.20
2018-05-04T17:07:46.655Z,18.10
2018-05-04T17:10:15.076Z,18.10
2018-05-04T17:12:44.206Z,18.00
2018-05-04T17:15:13.368Z,17.90
2018-05-04T17:17:42.146Z,17.90
2018-05-04T17:20:10.516Z,17.90
2018-05-04T17:22:38.915Z,17.90
2018-05-04T17:25:08.335Z,17.90
2018-05-04T17:27:36.692Z,17.90
2018-05-04T17:30:05.079Z,17.90
2018-05-04T17:32:33.491Z,17.90
2018-05-04T17:35:01.868Z,17.70
2018-05-04T17:37:30.263Z,17.70
2018-05-04T17:39:59.366Z,17.70
2018-05-04T17:42:27.727Z,17.70
2018-05-04T17:44:56.201Z,17.70
2018-05-04T17:47:24.814Z,17.60
2018-05-04T17:49:53.167Z,17.50
2018-05-04T17:52:21.572Z,17.40
2018-05-04T17:54:50.090Z,17.40
2018-05-04T17:57:18.858Z,17.30
2018-05-04T17:59:47.334Z,17.20
2018-05-04T18:02:15.734Z,17.10
2018-05-04T18:04:44.188Z,17.00
2018-05-04T18:07:12.786Z,16.90
2018-05-04T18:09:41.231Z,16.90
2018-05-04T18:12:10.365Z,16.80
2018-05-04T18:14:38.767Z,16.80
2018-05-04T18:17:07.198Z,16.80
2018-05-04T18:19:38.253Z,16.70
2018-05-04T18:22:06.692Z,16.60
2018-05-04T18:24:35.112Z,16.60
2018-05-04T18:27:03.571Z,16.50
2018-05-04T18:29:31.962Z,16.40
2018-05-04T18:32:00.373Z,16.40
2018-05-04T18:34:29.700Z,16.30
2018-05-04T18:36:58.063Z,16.20
2018-05-04T18:39:26.483Z,16.10
2018-05-04T18:41:55.025Z,16.00
2018-05-04T18:44:23.451Z,15.90
2018-05-04T18:46:51.872Z,15.80
2018-05-04T18:49:20.271Z,15.60
2018-05-04T18:51:48.818Z,15.50
2018-05-04T18:54:18.152Z,15.40
2018-05-04T18:56:47.036Z,15.20
2018-05-04T18:59:15.467Z,15.10
2018-05-04T19:01:44.587Z,14.90
2018-05-04T19:04:15.156Z,14.80
2018-05-04T19:06:43.694Z,14.70
2018-05-04T19:09:12.065Z,14.60
2018-05-04T19:11:40.486Z,14.50
2018-05-04T19:14:09.699Z,14.20
2018-05-04T19:16:38.235Z,14.20
2018-05-04T19:19:07.343Z,14.00
2018-05-04T19:21:36.591Z,13.80
2018-05-04T19:24:05.099Z,13.80
2018-05-04T19:26:33.646Z,13.70
2018-05-04T19:29:02.036Z,13.50
2018-05-04T19:31:30.603Z,13.40
2018-05-04T19:33:59.033Z,13.30
2018-05-04T19:36:27.452Z,13.20
2018-05-04T19:38:57.087Z,13.10
2018-05-04T19:41:25.671Z,13.10
2018-05-04T19:43:54.499Z,13.00
2018-05-04T19:46:23.632Z,12.80
2018-05-04T19:48:52.015Z,12.80
2018-05-04T19:51:20.566Z,12.70
2018-05-04T19:53:48.972Z,12.70
2018-05-04T19:56:17.346Z,12.60
2018-05-04T19:58:45.806Z,12.50
2018-05-04T20:01:14.891Z,12.30
2018-05-04T20:03:43.336Z,12.40
2018-05-04T20:06:13.401Z,12.30
2018-05-04T20:08:41.760Z,12.20
2018-05-04T20:11:10.127Z,12.10
2018-05-04T20:13:38.539Z,12.00
2018-05-04T20:16:06.922Z,11.90
2018-05-04T20:18:36.047Z,11.70
2018-05-04T20:21:04.608Z,11.70
2018-05-04T20:23:32.976Z,11.70
2018-05-04T20:26:01.355Z,11.50
2018-05-04T20:28:30.514Z,11.30
2018-05-04T20:30:59.048Z,11.20
2018-05-04T20:33:27.463Z,11.20
2018-05-04T20:35:55.823Z,11.20
2018-05-04T20:38:24.956Z,11.00
2018-05-04T20:40:55.204Z,10.90
2018-05-04T20:43:23.619Z,10.80
2018-05-04T20:45:52.247Z,10.80
2018-05-04T20:48:20.634Z,10.80
2018-05-04T20:50:49.013Z,10.70
2018-05-04T20:53:17.403Z,10.70
2018-05-04T20:55:45.807Z,10.70
2018-05-04T20:58:14.391Z,10.70
2018-05-04T21:00:42.755Z,10.70
2018-05-04T21:03:11.182Z,10.70
2018-05-04T21:05:39.561Z,10.80
2018-05-04T21:08:08.118Z,10.80
2018-05-04T21:10:36.537Z,10.80
2018-05-04T21:13:05.995Z,10.80
2018-05-04T21:15:34.356Z,10.80
2018-05-04T21:18:02.775Z,10.80
2018-05-04T21:20:31.130Z,10.80
2018-05-04T21:22:59.563Z,10.80
2018-05-04T21:25:27.947Z,10.80
2018-05-04T21:27:56.351Z,10.70
2018-05-04T21:30:25.524Z,10.50
2018-05-04T21:32:53.898Z,10.50
2018-05-04T21:35:22.287Z,10.40
2018-05-04T21:37:50.646Z,10.40
2018-05-04T21:40:19.764Z,10.40
2018-05-04T21:42:48.139Z,10.40
2018-05-04T21:45:16.687Z,10.50
2018-05-04T21:47:46.137Z,10.60
2018-05-04T21:50:14.512Z,10.50
2018-05-04T21:52:42.945Z,10.60
2018-05-04T21:55:12.125Z,10.60
2018-05-04T21:57:40.507Z,10.60
2018-05-04T22:00:08.897Z,10.60
2018-05-04T22:02:37.266Z,10.60
2018-05-04T22:05:05.700Z,10.60
2018-05-04T22:07:34.238Z,10.60
2018-05-04T22:10:02.693Z,10.60
2018-05-04T22:12:31.097Z,10.60
2018-05-04T22:14:59.632Z,10.60
2018-05-04T22:17:28.055Z,10.60
2018-05-04T22:19:57.180Z,10.60
2018-05-04T22:22:25.542Z,10.60
2018-05-04T22:24:53.956Z,10.60
2018-05-04T22:27:23.327Z,10.60
2018-05-04T22:29:51.903Z,10.60
2018-05-04T22:34:52.891Z,10.60
2018-05-04T22:37:21.291Z,10.50
2018-05-04T22:39:50.613Z,10.40
2018-05-04T22:42:19.038Z,10.40
2018-05-04T22:44:47.444Z,10.40
2018-05-04T22:47:16.015Z,10.30
2018-05-04T22:49:44.434Z,10.30
2018-05-04T22:52:13.597Z,10.20
2018-05-04T22:54:42.763Z,10.10
2018-05-04T22:57:11.287Z,10.00
2018-05-04T22:59:40.257Z,10.00
2018-05-04T23:02:08.811Z,9.90
2018-05-04T23:04:37.160Z,9.90
2018-05-04T23:07:06.314Z,9.80
2018-05-04T23:09:34.694Z,9.80
2018-05-04T23:12:04.246Z,9.80
2018-05-04T23:14:34.414Z,9.70
2018-05-04T23:17:02.839Z,9.70
2018-05-04T23:19:31.310Z,9.70
2018-05-04T23:21:59.870Z,9.60
2018-05-04T23:24:28.971Z,9.50
2018-05-04T23:26:57.367Z,9.50
2018-05-04T23:29:25.759Z,9.40
2018-05-04T23:31:54.283Z,9.40
2018-05-04T23:36:59.086Z,9.20
2018-05-04T23:39:29.051Z,9.10
2018-05-04T23:41:57.466Z,9.00
2018-05-04T23:44:25.918Z,9.00
2018-05-04T23:46:54.412Z,8.90
2018-05-04T23:49:22.771Z,8.90
2018-05-04T23:51:51.143Z,8.80
2018-05-04T23:54:19.531Z,8.70
2018-05-04T23:56:48.703Z,8.70
2018-05-04T23:59:17.083Z,8.60
